Time;durP1;ratioP1;P1;durP2;ratioP2;P2;SDS_P1;SDS_P2;PMS_P1;PMS_P2;Temp;Humidity;BMP_temperature;BMP_pressure;BME280_temperature;BME280_humidity;BME280_pressure;Samples;Min_cycle;Max_cycle;Signal;HPM_P1;HPM_P2
2022/03/07 00:01:46;;;;;;;5.32;3.55;;;;;;;;;;4998014;28;20026;-77
2022/03/07 00:04:14;;;;;;;5.45;3.42;;;;;;;;;;4998099;28;20027;-77
2022/03/07 00:06:39;;;;;;;5.65;3.70;;;;;;;;;;4997589;28;20097;-77
2022/03/07 00:09:04;;;;;;;6.95;4.10;;;;;;;;;;4998840;28;20030;-77
2022/03/07 00:11:30;;;;;;;7.05;3.90;;;;;;;;;;4981101;28;20022;-77
2022/03/07 00:13:55;;;;;;;11.10;4.20;;;;;;;;;;4997698;28;20023;-77
2022/03/07 00:16:20;;;;;;;7.05;4.15;;;;;;;;;;4997973;28;20468;-77
2022/03/07 00:18:46;;;;;;;6.70;4.07;;;;;;;;;;4998077;28;20026;-78
2022/03/07 00:21:12;;;;;;;8.75;3.95;;;;;;;;;;4997925;28;20034;-76
2022/03/07 00:23:38;;;;;;;6.50;3.90;;;;;;;;;;4979263;28;20022;-77
2022/03/07 00:26:06;;;;;;;6.55;3.88;;;;;;;;;;4996591;28;20030;-76
2022/03/07 00:28:32;;;;;;;6.68;3.80;;;;;;;;;;4996928;28;20034;-77
2022/03/07 00:30:57;;;;;;;8.32;4.18;;;;;;;;;;4997084;28;20033;-76
2022/03/07 00:33:22;;;;;;;6.97;2.97;;;;;;;;;;4997231;28;20030;-77
2022/03/07 00:35:47;;;;;;;9.50;3.95;;;;;;;;;;4996721;28;20472;-77
2022/03/07 00:38:13;;;;;;;7.57;4.28;;;;;;;;;;4979061;28;20022;-77
2022/03/07 00:40:39;;;;;;;6.18;4.15;;;;;;;;;;4996597;28;20038;-76
2022/03/07 00:43:08;;;;;;;6.47;4.32;;;;;;;;;;4998880;28;20026;-78
2022/03/07 00:45:34;;;;;;;6.65;3.83;;;;;;;;;;4998108;28;20025;-77
2022/03/07 00:47:59;;;;;;;5.85;3.63;;;;;;;;;;4997577;28;20026;-77
2022/03/07 00:50:24;;;;;;;7.78;4.00;;;;;;;;;;4997471;28;20038;-78
2022/03/07 00:52:49;;;;;;;7.10;3.92;;;;;;;;;;4998349;28;20022;-77
2022/03/07 00:55:15;;;;;;;7.32;4.03;;;;;;;;;;4980420;28;20120;-78
2022/03/07 00:57:40;;;;;;;6.45;4.03;;;;;;;;;;4998666;28;20030;-78
2022/03/07 01:00:06;;;;;;;6.00;4.30;;;;;;;;;;4998808;28;20022;-77
2022/03/07 01:02:31;;;;;;;7.72;3.78;;;;;;;;;;4997770;28;20372;-77
2022/03/07 01:04:57;;;;;;;5.32;3.60;;;;;;;;;;4997190;28;20030;-77
2022/03/07 01:07:22;;;;;;;5.80;3.70;;;;;;;;;;4979505;28;20034;-78
2022/03/07 01:09:47;;;;;;;5.22;3.70;;;;;;;;;;4997950;28;20046;-77
2022/03/07 01:12:13;;;;;;;5.85;3.70;;;;;;;;;;4997527;28;20030;-77
2022/03/07 01:14:38;;;;;;;6.65;3.80;;;;;;;;;;4997947;28;20105;-77
2022/03/07 01:17:04;;;;;;;5.22;3.42;;;;;;;;;;4998038;28;20033;-77
2022/03/07 01:19:29;;;;;;;6.47;3.78;;;;;;;;;;4998419;28;20018;-77
2022/03/07 01:21:54;;;;;;;7.35;4.03;;;;;;;;;;4999176;28;20472;-78
2022/03/07 01:24:19;;;;;;;6.18;3.58;;;;;;;;;;4998211;28;20031;-77
2022/03/07 01:26:46;;;;;;;8.13;4.20;;;;;;;;;;4998331;28;20088;-77
2022/03/07 01:29:11;;;;;;;7.47;4.07;;;;;;;;;;4980584;28;20041;-78
2022/03/07 01:31:36;;;;;;;4.78;3.55;;;;;;;;;;4999327;28;20110;-77
2022/03/07 01:34:01;;;;;;;5.53;3.85;;;;;;;;;;4998810;28;20029;-76
2022/03/07 01:36:26;;;;;;;5.65;4.00;;;;;;;;;;4998204;28;20533;-77
2022/03/07 01:38:52;;;;;;;6.38;3.78;;;;;;;;;;4980769;28;20034;-77
2022/03/07 01:41:17;;;;;;;6.35;3.75;;;;;;;;;;4999840;28;20027;-77
2022/03/07 01:43:43;;;;;;;5.93;3.97;;;;;;;;;;5000368;28;20041;-76
2022/03/07 01:46:09;;;;;;;5.20;3.92;;;;;;;;;;5001070;28;20033;-77
2022/03/07 01:48:37;;;;;;;8.30;3.85;;;;;;;;;;4983876;28;20050;-76
2022/03/07 01:51:03;;;;;;;6.72;3.58;;;;;;;;;;4999913;28;20464;-76
2022/03/07 01:53:29;;;;;;;6.03;3.38;;;;;;;;;;4999661;28;20481;-77
2022/03/07 01:55:55;;;;;;;4.75;3.05;;;;;;;;;;4981361;28;20025;-77
2022/03/07 01:58:21;;;;;;;6.55;3.50;;;;;;;;;;4996927;28;20037;-76
2022/03/07 02:00:47;;;;;;;4.82;3.08;;;;;;;;;;4996158;28;20030;-76
2022/03/07 02:03:13;;;;;;;5.10;3.40;;;;;;;;;;4995719;28;20030;-75
2022/03/07 02:05:39;;;;;;;6.32;3.80;;;;;;;;;;4977913;28;20026;-77
2022/03/07 02:08:04;;;;;;;6.57;3.92;;;;;;;;;;4995386;28;20033;-77
2022/03/07 02:10:30;;;;;;;6.60;3.60;;;;;;;;;;4977977;28;20022;-77
2022/03/07 02:12:55;;;;;;;6.78;4.35;;;;;;;;;;4995357;28;20369;-77
2022/03/07 02:15:20;;;;;;;7.88;4.35;;;;;;;;;;4977865;28;20022;-76
2022/03/07 02:17:46;;;;;;;5.13;3.88;;;;;;;;;;4994956;28;20109;-77
2022/03/07 02:20:12;;;;;;;7.05;3.97;;;;;;;;;;4977975;28;20026;-77
2022/03/07 02:22:37;;;;;;;8.40;3.78;;;;;;;;;;4995361;28;20126;-77
2022/03/07 02:25:03;;;;;;;6.13;4.03;;;;;;;;;;4995644;28;20508;-76
2022/03/07 02:27:28;;;;;;;6.82;4.18;;;;;;;;;;4994520;28;20037;-77
2022/03/07 02:29:54;;;;;;;6.03;3.97;;;;;;;;;;4995184;28;20058;-76
2022/03/07 02:32:20;;;;;;;6.88;3.95;;;;;;;;;;4994986;28;20033;-76
2022/03/07 02:34:46;;;;;;;7.85;4.13;;;;;;;;;;4995159;28;20023;-76
2022/03/07 02:37:11;;;;;;;7.00;3.83;;;;;;;;;;4995173;28;20152;-77
2022/03/07 02:39:37;;;;;;;6.00;4.28;;;;;;;;;;4994844;28;20387;-77
2022/03/07 02:42:02;;;;;;;6.28;3.90;;;;;;;;;;4977630;28;20025;-77
2022/03/07 02:44:27;;;;;;;7.20;4.25;;;;;;;;;;4995316;28;20038;-77
2022/03/07 02:46:53;;;;;;;6.05;3.85;;;;;;;;;;4994774;28;20387;-77
2022/03/07 02:49:18;;;;;;;10.10;3.90;;;;;;;;;;4995266;28;20467;-76
2022/03/07 02:51:43;;;;;;;5.60;3.80;;;;;;;;;;4994875;28;20030;-76
2022/03/07 02:54:08;;;;;;;6.07;3.90;;;;;;;;;;4994594;28;20030;-77
2022/03/07 02:56:34;;;;;;;6.38;3.97;;;;;;;;;;4976936;28;20024;-77
2022/03/07 02:58:59;;;;;;;6.32;4.10;;;;;;;;;;4994970;28;20041;-77
2022/03/07 03:01:25;;;;;;;5.72;3.63;;;;;;;;;;4995221;28;20033;-77
2022/03/07 03:03:50;;;;;;;8.68;3.45;;;;;;;;;;4994968;28;20133;-77
2022/03/07 03:06:16;;;;;;;6.43;3.88;;;;;;;;;;4977146;28;20497;-77
2022/03/07 03:08:41;;;;;;;5.65;3.78;;;;;;;;;;4976908;28;20031;-77
2022/03/07 03:11:06;;;;;;;7.28;4.13;;;;;;;;;;4995492;28;20416;-78
2022/03/07 03:13:31;;;;;;;8.48;4.07;;;;;;;;;;4994109;28;20030;-77
2022/03/07 03:15:57;;;;;;;7.72;4.07;;;;;;;;;;4994324;28;20034;-77
2022/03/07 03:18:22;;;;;;;6.10;3.65;;;;;;;;;;4995104;28;20414;-76
2022/03/07 03:20:50;;;;;;;5.82;3.88;;;;;;;;;;4995074;28;20041;-77
2022/03/07 03:23:20;;;;;;;8.35;4.35;;;;;;;;;;4995588;28;20026;-77
2022/03/07 03:25:45;;;;;;;6.38;4.07;;;;;;;;;;4995026;28;20443;-76
2022/03/07 03:28:11;;;;;;;5.60;3.85;;;;;;;;;;4994246;28;20036;-77
2022/03/07 03:30:37;;;;;;;6.07;4.28;;;;;;;;;;4996584;28;20069;-78
2022/03/07 03:33:03;;;;;;;8.70;4.82;;;;;;;;;;4998894;28;20365;-76
2022/03/07 03:35:28;;;;;;;7.68;3.88;;;;;;;;;;4997654;28;20377;-77
2022/03/07 03:37:53;;;;;;;6.13;3.70;;;;;;;;;;4976114;28;20076;-76
2022/03/07 03:40:19;;;;;;;5.97;4.07;;;;;;;;;;4997983;28;20041;-76
2022/03/07 03:42:45;;;;;;;6.38;3.60;;;;;;;;;;4998218;28;20423;-77
2022/03/07 03:45:12;;;;;;;7.75;3.60;;;;;;;;;;4993324;28;20112;-77
2022/03/07 03:47:42;;;;;;;5.05;3.58;;;;;;;;;;4997996;28;20030;-77
2022/03/07 03:50:10;;;;;;;5.25;3.85;;;;;;;;;;4998219;28;20026;-77
2022/03/07 03:52:36;;;;;;;6.35;3.72;;;;;;;;;;4997679;28;20033;-77
2022/03/07 03:55:03;;;;;;;7.75;3.90;;;;;;;;;;4997617;28;20420;-77
2022/03/07 03:57:29;;;;;;;8.88;3.55;;;;;;;;;;4997474;28;20472;-77
2022/03/07 03:59:54;;;;;;;7.30;4.22;;;;;;;;;;4997416;28;20038;-77
2022/03/07 04:02:20;;;;;;;7.93;3.80;;;;;;;;;;4980305;28;20396;-77
2022/03/07 04:04:45;;;;;;;8.40;3.92;;;;;;;;;;4998194;28;20068;-77
2022/03/07 04:07:10;;;;;;;5.68;3.65;;;;;;;;;;4980466;28;20076;-78
2022/03/07 04:09:36;;;;;;;6.38;3.90;;;;;;;;;;4998960;28;20025;-77
2022/03/07 04:12:01;;;;;;;5.07;3.58;;;;;;;;;;4998392;28;20038;-77
2022/03/07 04:14:26;;;;;;;8.73;3.85;;;;;;;;;;4997567;28;20046;-77
2022/03/07 04:16:52;;;;;;;7.22;4.25;;;;;;;;;;4981189;28;20480;-77
2022/03/07 04:19:17;;;;;;;5.57;3.55;;;;;;;;;;4997527;28;20504;-77
2022/03/07 04:21:43;;;;;;;6.80;4.15;;;;;;;;;;4997486;28;20156;-77
2022/03/07 04:24:10;;;;;;;5.70;3.95;;;;;;;;;;4997600;28;20499;-76
2022/03/07 04:26:36;;;;;;;5.82;3.80;;;;;;;;;;4996990;28;20033;-76
2022/03/07 04:29:07;;;;;;;8.88;4.30;;;;;;;;;;4996957;28;20033;-76
2022/03/07 04:31:51;;;;;;;6.90;3.90;;;;;;;;;;4997297;28;20102;-76
2022/03/07 04:34:17;;;;;;;7.22;4.13;;;;;;;;;;4998555;28;20018;-76
2022/03/07 04:36:43;;;;;;;5.28;3.60;;;;;;;;;;4998771;28;20062;-76
2022/03/07 04:39:10;;;;;;;7.90;4.45;;;;;;;;;;4998781;28;20026;-77
2022/03/07 04:41:36;;;;;;;7.90;3.83;;;;;;;;;;5000228;28;20026;-76
2022/03/07 04:44:02;;;;;;;8.27;4.25;;;;;;;;;;5000018;28;20034;-76
2022/03/07 04:46:28;;;;;;;5.82;3.65;;;;;;;;;;4999933;28;20445;-76
2022/03/07 04:48:53;;;;;;;7.45;4.20;;;;;;;;;;4999652;28;20078;-76
2022/03/07 04:51:18;;;;;;;7.80;4.25;;;;;;;;;;4982861;28;20399;-76
2022/03/07 04:53:44;;;;;;;5.28;3.50;;;;;;;;;;5000352;28;20169;-76
2022/03/07 04:56:09;;;;;;;7.95;3.85;;;;;;;;;;5000550;28;20507;-76
2022/03/07 04:58:35;;;;;;;7.50;4.03;;;;;;;;;;5001624;28;20456;-77
2022/03/07 05:01:01;;;;;;;6.30;4.15;;;;;;;;;;4984054;28;20029;-76
2022/03/07 05:03:26;;;;;;;5.85;3.92;;;;;;;;;;5002954;28;20060;-76
2022/03/07 05:05:51;;;;;;;6.32;4.13;;;;;;;;;;4997453;28;20026;-76
2022/03/07 05:08:17;;;;;;;6.72;4.10;;;;;;;;;;4996521;28;20105;-76
2022/03/07 05:10:43;;;;;;;8.50;3.83;;;;;;;;;;4996815;28;20026;-76
2022/03/07 05:13:08;;;;;;;11.73;4.05;;;;;;;;;;4996765;28;20388;-76
2022/03/07 05:15:34;;;;;;;6.22;3.95;;;;;;;;;;4979497;28;20106;-76
2022/03/07 05:17:59;;;;;;;7.70;4.35;;;;;;;;;;4978983;28;20480;-76
2022/03/07 05:20:25;;;;;;;8.63;4.32;;;;;;;;;;4996793;28;20454;-76
2022/03/07 05:22:52;;;;;;;6.03;4.25;;;;;;;;;;4979394;28;20517;-76
2022/03/07 05:25:17;;;;;;;6.38;4.13;;;;;;;;;;4996056;28;20027;-76
2022/03/07 05:27:43;;;;;;;8.90;4.50;;;;;;;;;;4996254;28;20226;-76
2022/03/07 05:30:10;;;;;;;7.88;4.10;;;;;;;;;;4995834;28;20034;-76
2022/03/07 05:32:35;;;;;;;7.88;4.15;;;;;;;;;;4996132;28;20038;-77
2022/03/07 05:35:01;;;;;;;5.70;3.60;;;;;;;;;;4995665;28;20030;-77
2022/03/07 05:37:26;;;;;;;6.85;3.85;;;;;;;;;;4996162;28;20089;-77
2022/03/07 05:39:52;;;;;;;7.40;4.45;;;;;;;;;;4996409;28;20101;-77
2022/03/07 05:42:17;;;;;;;4.97;3.53;;;;;;;;;;4978614;28;20030;-77
2022/03/07 05:44:42;;;;;;;6.00;4.13;;;;;;;;;;4995831;28;20141;-76
2022/03/07 05:47:08;;;;;;;8.05;4.25;;;;;;;;;;4996657;28;20476;-76
2022/03/07 05:49:33;;;;;;;7.05;3.97;;;;;;;;;;4995970;28;20096;-77
2022/03/07 05:51:59;;;;;;;6.68;3.90;;;;;;;;;;4978750;28;20419;-77
2022/03/07 05:54:24;;;;;;;7.15;3.95;;;;;;;;;;4995419;28;20109;-77
2022/03/07 05:56:49;;;;;;;6.72;3.95;;;;;;;;;;4996009;28;20029;-77
2022/03/07 05:59:14;;;;;;;7.60;3.85;;;;;;;;;;4996366;28;20033;-77
2022/03/07 06:01:40;;;;;;;8.35;4.32;;;;;;;;;;4996298;28;20041;-77
2022/03/07 06:04:05;;;;;;;5.68;3.72;;;;;;;;;;4978750;28;20022;-77
2022/03/07 06:06:30;;;;;;;7.07;3.53;;;;;;;;;;4978910;28;20026;-77
2022/03/07 06:08:55;;;;;;;6.13;3.90;;;;;;;;;;4996524;28;20105;-77
2022/03/07 06:11:21;;;;;;;8.00;4.00;;;;;;;;;;4995776;28;20065;-78
2022/03/07 06:13:46;;;;;;;6.88;3.67;;;;;;;;;;4996364;28;20029;-78
2022/03/07 06:16:12;;;;;;;5.97;3.58;;;;;;;;;;4997153;28;20026;-77
2022/03/07 06:18:37;;;;;;;7.80;3.80;;;;;;;;;;4997400;28;20388;-77
2022/03/07 06:21:03;;;;;;;10.40;3.50;;;;;;;;;;4998275;28;20088;-76
2022/03/07 06:23:28;;;;;;;7.95;3.72;;;;;;;;;;4997240;28;20396;-78
2022/03/07 06:25:53;;;;;;;6.03;3.38;;;;;;;;;;4997949;28;20025;-78
2022/03/07 06:28:19;;;;;;;5.43;3.25;;;;;;;;;;4995058;28;20084;-77
2022/03/07 06:30:48;;;;;;;8.25;3.90;;;;;;;;;;4995514;28;20030;-77
2022/03/07 06:33:16;;;;;;;6.38;3.20;;;;;;;;;;4997040;28;20076;-77
2022/03/07 06:35:42;;;;;;;6.82;3.28;;;;;;;;;;4978409;28;20029;-77
2022/03/07 06:38:07;;;;;;;5.78;3.47;;;;;;;;;;4995094;28;20030;-77
2022/03/07 06:40:33;;;;;;;7.10;3.47;;;;;;;;;;4995559;28;20030;-77
2022/03/07 06:43:00;;;;;;;6.63;3.50;;;;;;;;;;4995029;28;20095;-77
2022/03/07 06:45:25;;;;;;;6.28;3.55;;;;;;;;;;4994989;28;20109;-77
2022/03/07 06:47:51;;;;;;;4.78;3.25;;;;;;;;;;4994741;28;20073;-77
2022/03/07 06:50:16;;;;;;;6.35;3.30;;;;;;;;;;4995043;28;20037;-76
2022/03/07 06:52:42;;;;;;;6.65;3.53;;;;;;;;;;4995291;28;20472;-77
2022/03/07 06:55:08;;;;;;;7.32;3.80;;;;;;;;;;4994860;28;20029;-76
2022/03/07 06:57:33;;;;;;;7.00;3.45;;;;;;;;;;4994303;28;20204;-77
2022/03/07 06:59:59;;;;;;;5.72;3.78;;;;;;;;;;4994782;28;20077;-78
2022/03/07 07:02:24;;;;;;;4.97;3.35;;;;;;;;;;4994435;28;20034;-77
2022/03/07 07:04:49;;;;;;;9.35;4.65;;;;;;;;;;4994270;28;20031;-77
2022/03/07 07:07:16;;;;;;;6.13;3.55;;;;;;;;;;4994732;28;20084;-77
2022/03/07 07:09:41;;;;;;;5.47;3.50;;;;;;;;;;4976898;28;20022;-76
2022/03/07 07:12:08;;;;;;;9.80;3.70;;;;;;;;;;4995253;28;20026;-76
2022/03/07 07:14:33;;;;;;;5.95;3.63;;;;;;;;;;4995426;28;20037;-76
2022/03/07 07:16:58;;;;;;;6.60;4.00;;;;;;;;;;4994315;28;20109;-77
2022/03/07 07:19:24;;;;;;;6.55;3.50;;;;;;;;;;4978040;28;20034;-77
2022/03/07 07:21:49;;;;;;;6.20;3.63;;;;;;;;;;4978380;28;20026;-76
2022/03/07 07:24:15;;;;;;;7.38;4.03;;;;;;;;;;4978234;28;20027;-76
2022/03/07 07:26:40;;;;;;;6.55;3.80;;;;;;;;;;4978830;28;20080;-81
2022/03/07 07:29:06;;;;;;;6.88;3.60;;;;;;;;;;4994575;28;20030;-76
2022/03/07 07:31:32;;;;;;;5.95;3.33;;;;;;;;;;4976438;28;20030;-75
2022/03/07 07:33:57;;;;;;;6.32;3.90;;;;;;;;;;4994102;28;20494;-76
2022/03/07 07:36:22;;;;;;;5.80;3.95;;;;;;;;;;4975812;28;20112;-74
2022/03/07 07:38:47;;;;;;;5.20;3.17;;;;;;;;;;4993278;28;20029;-73
2022/03/07 07:41:13;;;;;;;6.80;3.58;;;;;;;;;;4994668;28;20027;-77
2022/03/07 07:43:38;;;;;;;6.57;3.80;;;;;;;;;;4997900;28;20023;-76
2022/03/07 07:46:03;;;;;;;7.68;3.95;;;;;;;;;;4996488;28;20031;-80
2022/03/07 07:48:29;;;;;;;5.57;3.78;;;;;;;;;;4981020;28;20089;-78
2022/03/07 07:50:54;;;;;;;9.27;4.00;;;;;;;;;;5000652;28;20030;-77
2022/03/07 07:53:20;;;;;;;6.68;4.00;;;;;;;;;;4995736;28;20101;-77
2022/03/07 07:55:45;;;;;;;7.47;4.07;;;;;;;;;;4996137;28;20022;-77
2022/03/07 07:58:10;;;;;;;5.75;3.63;;;;;;;;;;4996481;28;20416;-76
2022/03/07 08:00:36;;;;;;;6.90;3.05;;;;;;;;;;4996737;28;20364;-77
2022/03/07 08:03:01;;;;;;;6.07;3.75;;;;;;;;;;4997399;28;20062;-77
2022/03/07 08:05:26;;;;;;;5.80;3.70;;;;;;;;;;4981050;28;20041;-78
2022/03/07 08:07:52;;;;;;;6.60;4.18;;;;;;;;;;4979245;28;20050;-78
2022/03/07 08:10:17;;;;;;;6.45;3.90;;;;;;;;;;4996799;28;20077;-78
2022/03/07 08:12:44;;;;;;;6.05;3.38;;;;;;;;;;4997006;28;20034;-77
2022/03/07 08:15:12;;;;;;;7.25;3.88;;;;;;;;;;4995281;28;20084;-77
2022/03/07 08:17:46;;;;;;;6.10;3.83;;;;;;;;;;4997813;28;20030;-77
2022/03/07 08:20:13;;;;;;;6.03;3.50;;;;;;;;;;4981241;28;20037;-77
2022/03/07 08:22:39;;;;;;;6.38;3.75;;;;;;;;;;4981843;28;20488;-77
2022/03/07 08:25:05;;;;;;;9.75;3.67;;;;;;;;;;4981943;28;20034;-79
2022/03/07 08:27:31;;;;;;;5.10;3.35;;;;;;;;;;4999623;28;20025;-78
2022/03/07 08:29:56;;;;;;;6.47;3.40;;;;;;;;;;4998364;28;20034;-77
2022/03/07 08:32:21;;;;;;;5.82;3.58;;;;;;;;;;4999118;28;20049;-78
2022/03/07 08:34:47;;;;;;;6.18;3.72;;;;;;;;;;4981759;28;20125;-79
2022/03/07 08:37:12;;;;;;;9.80;3.88;;;;;;;;;;5000640;28;20058;-77
2022/03/07 08:39:37;;;;;;;7.28;4.85;;;;;;;;;;4998718;28;20150;-78
2022/03/07 08:42:02;;;;;;;6.15;3.60;;;;;;;;;;4997923;28;20023;-78
2022/03/07 08:44:28;;;;;;;5.00;3.25;;;;;;;;;;4983796;28;20081;-78
2022/03/07 08:46:53;;;;;;;8.43;3.67;;;;;;;;;;5002303;28;20023;-78
2022/03/07 08:49:18;;;;;;;7.32;3.65;;;;;;;;;;5001271;28;20030;-78
2022/03/07 08:51:46;;;;;;;5.25;3.55;;;;;;;;;;4998522;28;20476;-78
2022/03/07 08:54:11;;;;;;;7.82;3.33;;;;;;;;;;4998583;28;20484;-78
2022/03/07 08:56:36;;;;;;;8.18;3.42;;;;;;;;;;4980375;28;20034;-78
2022/03/07 08:59:02;;;;;;;5.20;3.20;;;;;;;;;;4981351;28;20143;-75
2022/03/07 09:01:27;;;;;;;5.60;3.35;;;;;;;;;;4997628;28;20041;-78
2022/03/07 09:03:52;;;;;;;6.15;3.15;;;;;;;;;;4998425;28;20032;-77
2022/03/07 09:06:18;;;;;;;5.88;3.08;;;;;;;;;;4999566;28;20105;-77
2022/03/07 09:08:43;;;;;;;6.65;3.30;;;;;;;;;;4997491;28;20022;-78
2022/03/07 09:11:08;;;;;;;4.38;3.00;;;;;;;;;;4999875;28;20528;-77
2022/03/07 09:13:33;;;;;;;5.05;2.90;;;;;;;;;;4997944;28;20052;-78
2022/03/07 09:15:59;;;;;;;4.93;3.15;;;;;;;;;;4981892;28;20027;-78
2022/03/07 09:18:26;;;;;;;4.70;2.88;;;;;;;;;;5008790;28;20037;-77
2022/03/07 09:20:51;;;;;;;7.68;2.90;;;;;;;;;;5001152;28;20173;-79
2022/03/07 09:23:16;;;;;;;5.15;3.00;;;;;;;;;;4985455;28;20030;-78
2022/03/07 09:25:42;;;;;;;6.53;3.22;;;;;;;;;;5012324;28;20033;-79
2022/03/07 09:28:07;;;;;;;5.20;3.00;;;;;;;;;;5009867;28;20030;-77
2022/03/07 09:30:33;;;;;;;6.35;3.13;;;;;;;;;;4998816;28;20026;-77
2022/03/07 09:33:03;;;;;;;7.10;2.90;;;;;;;;;;4997929;28;20027;-78
2022/03/07 09:35:29;;;;;;;5.75;3.05;;;;;;;;;;4997637;28;20015;-78
2022/03/07 09:37:54;;;;;;;6.75;3.25;;;;;;;;;;4998293;28;20033;-78
2022/03/07 09:40:19;;;;;;;6.65;2.70;;;;;;;;;;4997323;28;20456;-77
2022/03/07 09:42:46;;;;;;;4.60;2.88;;;;;;;;;;4997179;28;20092;-77
2022/03/07 09:45:13;;;;;;;4.57;2.72;;;;;;;;;;4997016;28;20050;-78
2022/03/07 09:47:40;;;;;;;5.07;3.13;;;;;;;;;;4979123;28;20027;-78
2022/03/07 09:50:06;;;;;;;9.38;3.78;;;;;;;;;;4996625;28;20026;-78
2022/03/07 09:52:32;;;;;;;7.65;3.85;;;;;;;;;;4997269;28;20022;-79
2022/03/07 09:54:58;;;;;;;6.88;3.08;;;;;;;;;;4998021;28;20088;-78
2022/03/07 09:57:24;;;;;;;8.10;2.88;;;;;;;;;;4997346;28;20028;-78
2022/03/07 09:59:49;;;;;;;6.10;3.25;;;;;;;;;;4997541;28;20038;-77
2022/03/07 10:02:18;;;;;;;6.90;2.83;;;;;;;;;;4997161;28;20036;-77
2022/03/07 10:04:45;;;;;;;6.43;2.92;;;;;;;;;;4997168;28;20022;-77
2022/03/07 10:07:11;;;;;;;4.63;2.97;;;;;;;;;;4998063;28;20035;-77
2022/03/07 10:09:36;;;;;;;5.30;2.47;;;;;;;;;;4996555;28;20024;-78
2022/03/07 10:12:05;;;;;;;6.13;2.97;;;;;;;;;;4997547;28;20436;-77
2022/03/07 10:14:42;;;;;;;6.10;3.00;;;;;;;;;;4997303;28;20018;-78
2022/03/07 10:17:26;;;;;;;8.02;3.42;;;;;;;;;;4997284;28;20492;-78
2022/03/07 10:19:56;;;;;;;3.90;2.50;;;;;;;;;;4996451;28;20041;-77
2022/03/07 10:22:26;;;;;;;3.55;2.20;;;;;;;;;;4981731;28;20026;-78
2022/03/07 10:25:03;;;;;;;5.78;2.15;;;;;;;;;;5003965;28;20085;-78
2022/03/07 10:27:37;;;;;;;4.57;2.78;;;;;;;;;;4978202;28;20022;-78
2022/03/07 10:30:03;;;;;;;;;;;;;;;;;;4994732;28;20034;-77
2022/03/07 10:32:28;;;;;;;5.90;2.55;;;;;;;;;;4998539;28;19909;-78
2022/03/07 10:34:53;;;;;;;6.03;3.25;;;;;;;;;;5009812;28;20022;-78
2022/03/07 10:37:30;;;;;;;4.78;2.55;;;;;;;;;;5008060;28;20026;-78
2022/03/07 10:39:55;;;;;;;3.88;2.35;;;;;;;;;;4978927;28;20113;-79
2022/03/07 10:42:20;;;;;;;5.40;2.90;;;;;;;;;;4979363;28;20065;-78
2022/03/07 10:44:47;;;;;;;6.97;2.67;;;;;;;;;;4997242;28;20026;-77
2022/03/07 10:47:16;;;;;;;4.68;2.35;;;;;;;;;;4995374;28;20030;-78
2022/03/07 10:49:50;;;;;;;4.10;2.45;;;;;;;;;;4995849;28;20031;-77
2022/03/07 10:52:16;;;;;;;4.47;3.05;;;;;;;;;;5008829;28;20089;-78
2022/03/07 10:54:41;;;;;;;4.50;3.33;;;;;;;;;;5007182;28;20050;-78
2022/03/07 10:57:08;;;;;;;6.00;2.47;;;;;;;;;;4990986;28;20065;-78
2022/03/07 10:59:35;;;;;;;6.28;3.08;;;;;;;;;;5006928;28;20444;-78
2022/03/07 11:02:04;;;;;;;7.18;3.53;;;;;;;;;;4987187;28;20380;-78
2022/03/07 11:04:30;;;;;;;6.38;3.03;;;;;;;;;;4980599;28;20033;-78
2022/03/07 11:06:55;;;;;;;6.32;3.20;;;;;;;;;;4997053;28;20031;-77
2022/03/07 11:09:20;;;;;;;5.60;2.97;;;;;;;;;;4994619;28;20026;-77
2022/03/07 11:11:47;;;;;;;7.00;3.10;;;;;;;;;;4995204;28;20034;-77
2022/03/07 11:14:13;;;;;;;6.88;3.28;;;;;;;;;;4977606;28;20412;-77
2022/03/07 11:16:39;;;;;;;6.38;3.20;;;;;;;;;;4993975;28;20026;-77
2022/03/07 11:19:07;;;;;;;5.90;3.10;;;;;;;;;;4995858;28;20028;-77
2022/03/07 11:21:32;;;;;;;6.25;3.10;;;;;;;;;;4996399;28;20094;-76
2022/03/07 11:23:57;;;;;;;7.03;3.10;;;;;;;;;;4995602;28;20436;-77
2022/03/07 11:26:26;;;;;;;4.18;2.67;;;;;;;;;;4995492;28;20053;-77
2022/03/07 11:28:51;;;;;;;8.27;3.40;;;;;;;;;;4994968;28;20054;-78
2022/03/07 11:31:21;;;;;;;5.13;3.22;;;;;;;;;;4995414;28;20027;-77
2022/03/07 11:33:50;;;;;;;7.05;2.53;;;;;;;;;;4995367;28;20022;-77
2022/03/07 11:36:18;;;;;;;7.05;3.05;;;;;;;;;;4977070;28;20038;-77
2022/03/07 11:38:58;;;;;;;6.00;2.72;;;;;;;;;;4994607;28;20030;-77
2022/03/07 11:41:27;;;;;;;7.32;3.40;;;;;;;;;;4994913;28;20031;-79
2022/03/07 11:44:01;;;;;;;4.57;2.88;;;;;;;;;;4977514;28;20076;-77
2022/03/07 11:46:34;;;;;;;6.93;3.03;;;;;;;;;;4995042;28;20388;-77
2022/03/07 11:49:02;;;;;;;6.00;3.40;;;;;;;;;;4996380;28;20073;-77
2022/03/07 11:51:30;;;;;;;7.22;2.78;;;;;;;;;;4996051;28;20507;-76
2022/03/07 11:53:56;;;;;;;6.28;3.55;;;;;;;;;;4998055;28;20472;-78
2022/03/07 11:56:28;;;;;;;6.13;3.13;;;;;;;;;;5003154;28;20027;-77
2022/03/07 11:58:58;;;;;;;5.63;3.70;;;;;;;;;;5004520;28;20022;-77
2022/03/07 12:01:25;;;;;;;7.40;3.72;;;;;;;;;;5005116;28;20049;-79
2022/03/07 12:03:52;;;;;;;5.68;3.00;;;;;;;;;;5001876;28;20030;-77
2022/03/07 12:06:19;;;;;;;3.63;2.38;;;;;;;;;;4998221;28;20121;-77
2022/03/07 12:08:47;;;;;;;7.55;3.15;;;;;;;;;;4981339;28;20506;-76
2022/03/07 12:11:24;;;;;;;8.68;3.30;;;;;;;;;;4981621;28;20034;-77
2022/03/07 12:13:50;;;;;;;5.03;3.35;;;;;;;;;;4984246;28;20030;-78
2022/03/07 12:16:27;;;;;;;4.75;3.05;;;;;;;;;;5002501;28;20022;-77
2022/03/07 12:19:06;;;;;;;6.70;3.40;;;;;;;;;;4983054;28;20030;-78
2022/03/07 12:21:32;;;;;;;4.28;2.65;;;;;;;;;;4985901;28;20026;-78
2022/03/07 12:23:58;;;;;;;9.82;3.58;;;;;;;;;;5002534;28;20026;-76
2022/03/07 12:26:23;;;;;;;6.32;2.80;;;;;;;;;;5001688;28;20086;-78
2022/03/07 12:28:49;;;;;;;5.00;3.15;;;;;;;;;;5001916;28;20026;-78
2022/03/07 12:31:14;;;;;;;4.97;3.13;;;;;;;;;;5001259;28;20480;-77
2022/03/07 12:33:46;;;;;;;6.78;2.80;;;;;;;;;;4983950;28;20053;-78
2022/03/07 12:36:15;;;;;;;6.72;3.13;;;;;;;;;;5000527;28;20037;-78
2022/03/07 12:38:49;;;;;;;5.18;2.80;;;;;;;;;;5000522;28;20053;-78
2022/03/07 12:41:17;;;;;;;5.00;2.95;;;;;;;;;;4982995;28;20022;-78
2022/03/07 12:43:46;;;;;;;5.18;3.00;;;;;;;;;;5000643;28;20035;-78
2022/03/07 12:46:12;;;;;;;4.28;2.55;;;;;;;;;;4999562;28;20499;-77
2022/03/07 12:48:43;;;;;;;7.18;2.53;;;;;;;;;;4998968;28;20026;-78
2022/03/07 12:51:10;;;;;;;3.92;2.13;;;;;;;;;;4998660;28;20026;-77
2022/03/07 12:53:44;;;;;;;5.85;2.70;;;;;;;;;;4980425;28;20026;-77
2022/03/07 12:56:09;;;;;;;4.93;3.05;;;;;;;;;;4998430;28;20105;-76
2022/03/07 12:58:44;;;;;;;6.63;2.90;;;;;;;;;;4997580;28;20062;-78
2022/03/07 13:01:11;;;;;;;5.70;2.72;;;;;;;;;;4996903;28;20030;-77
2022/03/07 13:03:36;;;;;;;7.78;3.47;;;;;;;;;;4998806;28;20060;-78
2022/03/07 13:06:02;;;;;;;6.72;3.67;;;;;;;;;;4999313;28;20019;-77
2022/03/07 13:08:27;;;;;;;4.32;2.80;;;;;;;;;;4996994;28;20085;-77
2022/03/07 13:10:53;;;;;;;7.30;3.10;;;;;;;;;;4996118;28;20483;-77
2022/03/07 13:13:18;;;;;;;5.83;2.70;;;;;;;;;;4995896;28;20022;-77
2022/03/07 13:15:44;;;;;;;5.55;3.25;;;;;;;;;;4996178;28;20411;-77
2022/03/07 13:18:10;;;;;;;5.47;2.42;;;;;;;;;;4978413;28;20034;-77
2022/03/07 13:20:35;;;;;;;6.03;2.60;;;;;;;;;;4995955;28;20022;-77
2022/03/07 13:23:02;;;;;;;4.20;2.35;;;;;;;;;;4996970;28;20503;-77
2022/03/07 13:25:49;;;;;;;3.85;2.28;;;;;;;;;;4996005;28;20026;-77
2022/03/07 13:28:26;;;;;;;4.55;2.20;;;;;;;;;;4995649;28;20514;-77
2022/03/07 13:30:51;;;;;;;2.83;2.13;;;;;;;;;;4995610;28;20112;-78
2022/03/07 13:33:17;;;;;;;4.75;2.72;;;;;;;;;;4997667;28;20057;-78
2022/03/07 13:35:43;;;;;;;5.43;2.80;;;;;;;;;;4997145;28;20460;-76
2022/03/07 13:38:08;;;;;;;4.22;2.28;;;;;;;;;;4980112;28;20034;-76
2022/03/07 13:40:36;;;;;;;4.38;2.35;;;;;;;;;;4979114;28;20113;-78
2022/03/07 13:43:03;;;;;;;5.45;2.20;;;;;;;;;;4978919;28;20492;-76
2022/03/07 13:45:31;;;;;;;3.95;2.60;;;;;;;;;;4997128;28;20064;-78
2022/03/07 13:48:00;;;;;;;3.35;1.90;;;;;;;;;;4996911;28;20026;-78
2022/03/07 13:50:26;;;;;;;4.05;2.25;;;;;;;;;;4995311;28;20462;-77
2022/03/07 13:53:07;;;;;;;4.43;2.35;;;;;;;;;;4996782;28;20030;-78
2022/03/07 13:55:35;;;;;;;6.68;2.38;;;;;;;;;;4996879;28;20021;-77
2022/03/07 13:58:00;;;;;;;4.32;2.50;;;;;;;;;;4996451;28;20530;-77
2022/03/07 14:00:28;;;;;;;5.45;2.42;;;;;;;;;;4978092;28;20026;-77
2022/03/07 14:03:01;;;;;;;3.90;2.00;;;;;;;;;;4996143;28;20026;-78
2022/03/07 14:05:39;;;;;;;6.10;2.72;;;;;;;;;;4995571;28;20022;-77
2022/03/07 14:08:04;;;;;;;6.30;2.30;;;;;;;;;;4996208;28;20126;-77
2022/03/07 14:10:29;;;;;;;5.60;2.75;;;;;;;;;;4996067;28;20057;-77
2022/03/07 14:12:58;;;;;;;6.03;2.45;;;;;;;;;;4996674;28;20030;-77
2022/03/07 14:15:28;;;;;;;3.45;2.38;;;;;;;;;;4995914;28;20018;-77
2022/03/07 14:17:57;;;;;;;4.10;2.25;;;;;;;;;;4996207;28;20579;-77
2022/03/07 14:20:22;;;;;;;3.33;2.00;;;;;;;;;;4996109;28;20026;-78
2022/03/07 14:22:48;;;;;;;3.58;1.98;;;;;;;;;;4999522;28;20093;-77
2022/03/07 14:25:13;;;;;;;4.10;2.20;;;;;;;;;;4998402;28;20026;-77
2022/03/07 14:27:38;;;;;;;4.35;2.42;;;;;;;;;;4996576;28;20033;-77
2022/03/07 14:30:05;;;;;;;5.43;2.50;;;;;;;;;;4997265;28;20523;-77
2022/03/07 14:32:31;;;;;;;3.17;2.20;;;;;;;;;;4997139;28;20034;-77
2022/03/07 14:34:57;;;;;;;3.78;2.17;;;;;;;;;;4997661;28;20341;-77
2022/03/07 14:37:29;;;;;;;4.18;2.28;;;;;;;;;;5000774;28;20034;-77
2022/03/07 14:39:56;;;;;;;4.20;2.50;;;;;;;;;;4979733;28;20057;-77